createdAt,value
2018-05-07T00:00:50.030Z,12.0
2018-05-07T00:01:50.696Z,12.0
2018-05-07T00:02:51.362Z,12.0
2018-05-07T00:03:52.063Z,12.1
2018-05-07T00:04:52.693Z,12.0
2018-05-07T00:05:53.378Z,12.1
2018-05-07T00:06:54.024Z,12.1
2018-05-07T00:07:54.691Z,12.0
2018-05-07T00:08:55.394Z,11.9
2018-05-07T00:09:56.063Z,11.9
2018-05-07T00:10:56.730Z,12.0
2018-05-07T00:11:57.412Z,11.9
2018-05-07T00:12:58.080Z,11.9
2018-05-07T00:13:58.728Z,11.9
2018-05-07T00:14:59.394Z,11.9
2018-05-07T00:16:00.073Z,11.9
2018-05-07T00:17:00.726Z,12.0
2018-05-07T00:18:01.393Z,11.9
2018-05-07T00:19:02.059Z,11.9
2018-05-07T00:20:02.725Z,11.9
2018-05-07T00:21:03.391Z,11.9
2018-05-07T00:22:04.057Z,11.8
2018-05-07T00:23:04.722Z,11.9
2018-05-07T00:24:05.388Z,11.8
2018-05-07T00:25:06.056Z,11.8
2018-05-07T00:26:06.718Z,11.8
2018-05-07T00:27:07.385Z,11.7
2018-05-07T00:28:08.052Z,11.7
2018-05-07T00:29:08.720Z,11.7
2018-05-07T00:30:09.386Z,11.7
2018-05-07T00:31:10.052Z,11.7
2018-05-07T00:32:10.729Z,11.8
2018-05-07T00:33:11.415Z,11.7
2018-05-07T00:34:12.050Z,11.6
2018-05-07T00:35:12.716Z,11.7
2018-05-07T00:36:13.382Z,11.7
2018-05-07T00:37:14.049Z,11.7
2018-05-07T00:38:14.714Z,11.7
2018-05-07T00:39:15.380Z,11.7
2018-05-07T00:40:16.045Z,11.6
2018-05-07T00:41:16.709Z,11.6
2018-05-07T00:42:17.374Z,11.6
2018-05-07T00:43:18.039Z,11.6
2018-05-07T00:44:18.705Z,11.6
2018-05-07T00:45:19.376Z,11.6
2018-05-07T00:46:20.077Z,11.5
2018-05-07T00:47:20.744Z,11.5
2018-05-07T00:48:21.412Z,11.6
2018-05-07T00:49:22.078Z,11.5
2018-05-07T00:50:22.745Z,11.5
2018-05-07T00:51:23.412Z,11.5
2018-05-07T00:52:24.078Z,11.5
2018-05-07T00:53:24.744Z,11.5
2018-05-07T00:54:25.409Z,11.5
2018-05-07T00:55:26.079Z,11.5
2018-05-07T00:56:26.741Z,11.5
2018-05-07T00:57:27.405Z,11.4
2018-05-07T00:58:28.070Z,11.5
2018-05-07T00:59:28.758Z,11.5
2018-05-07T01:00:29.408Z,11.4
2018-05-07T01:01:30.103Z,11.5
2018-05-07T01:02:30.767Z,11.4
2018-05-07T01:03:31.433Z,11.5
2018-05-07T01:04:32.098Z,11.4
2018-05-07T01:05:32.763Z,11.5
2018-05-07T01:06:33.488Z,11.5
2018-05-07T01:07:34.094Z,11.4
2018-05-07T01:08:34.761Z,11.5
2018-05-07T01:09:35.428Z,11.4
2018-05-07T01:10:36.098Z,11.4
2018-05-07T01:11:36.762Z,11.4
2018-05-07T01:12:37.427Z,11.3
2018-05-07T01:13:38.143Z,11.3
2018-05-07T01:14:38.809Z,11.3
2018-05-07T01:15:39.475Z,11.4
2018-05-07T01:16:40.141Z,11.4
2018-05-07T01:17:40.806Z,11.3
2018-05-07T01:18:41.472Z,11.3
2018-05-07T01:19:42.136Z,11.3
2018-05-07T01:20:42.802Z,11.3
2018-05-07T01:21:43.470Z,11.3
2018-05-07T01:22:44.137Z,11.3
2018-05-07T01:23:44.840Z,11.3
2018-05-07T01:24:45.507Z,11.3
2018-05-07T01:25:46.175Z,11.3
2018-05-07T01:26:46.841Z,11.3
2018-05-07T01:27:47.508Z,11.3
2018-05-07T01:28:48.207Z,11.2
2018-05-07T01:29:48.871Z,11.2
2018-05-07T01:30:49.536Z,11.2
2018-05-07T01:31:50.201Z,11.2
2018-05-07T01:32:50.869Z,11.2
2018-05-07T01:33:51.535Z,11.1
2018-05-07T01:34:52.241Z,11.1
2018-05-07T01:35:52.942Z,11.1
2018-05-07T01:36:53.606Z,11.1
2018-05-07T01:37:54.272Z,11.1
2018-05-07T01:38:54.938Z,11.1
2018-05-07T01:39:55.607Z,11.1
2018-05-07T01:40:56.269Z,11.2
2018-05-07T01:41:56.935Z,11.1
2018-05-07T01:42:57.637Z,11.1
2018-05-07T01:43:58.302Z,11.1
2018-05-07T01:44:58.967Z,11.0
2018-05-07T01:45:59.636Z,11.0
2018-05-07T01:47:00.337Z,11.0
2018-05-07T01:48:01.036Z,11.0
2018-05-07T01:49:01.702Z,10.9
2018-05-07T01:50:02.367Z,10.9
2018-05-07T01:51:03.033Z,10.9
2018-05-07T01:52:03.697Z,10.9
2018-05-07T01:53:04.362Z,11.0
2018-05-07T01:54:05.029Z,10.9
2018-05-07T01:55:05.694Z,10.9
2018-05-07T01:56:06.361Z,10.9
2018-05-07T01:57:07.027Z,10.9
2018-05-07T01:58:07.694Z,10.8
2018-05-07T01:59:08.358Z,10.7
2018-05-07T02:00:09.062Z,10.7
2018-05-07T02:01:09.728Z,10.8
2018-05-07T02:02:10.393Z,10.7
2018-05-07T02:03:11.059Z,10.8
2018-05-07T02:04:11.725Z,10.7
2018-05-07T02:05:12.392Z,10.8
2018-05-07T02:06:13.062Z,10.8
2018-05-07T02:07:13.723Z,10.8
2018-05-07T02:08:14.388Z,10.7
2018-05-07T02:09:15.053Z,10.7
2018-05-07T02:10:15.717Z,10.7
2018-05-07T02:11:16.382Z,10.7
2018-05-07T02:12:17.047Z,10.7
2018-05-07T02:13:17.779Z,10.7
2018-05-07T02:14:18.377Z,10.6
2018-05-07T02:15:19.045Z,10.6
2018-05-07T02:16:19.716Z,10.6
2018-05-07T02:17:20.416Z,10.7
2018-05-07T02:18:21.082Z,10.7
2018-05-07T02:19:21.747Z,10.6
2018-05-07T02:20:22.412Z,10.6
2018-05-07T02:21:23.078Z,10.6
2018-05-07T02:22:23.744Z,10.6
2018-05-07T02:23:24.409Z,10.6
2018-05-07T02:24:25.076Z,10.7
2018-05-07T02:25:25.742Z,10.5
2018-05-07T02:26:26.408Z,10.6
2018-05-07T02:27:27.072Z,10.6
2018-05-07T02:28:27.737Z,10.7
2018-05-07T02:29:28.400Z,10.5
2018-05-07T02:30:29.066Z,10.6
2018-05-07T02:31:29.759Z,10.6
2018-05-07T02:32:30.396Z,10.5
2018-05-07T02:33:31.065Z,10.6
2018-05-07T02:34:31.729Z,10.5
2018-05-07T02:35:32.395Z,10.5
2018-05-07T02:36:33.060Z,10.4
2018-05-07T02:37:33.724Z,10.4
2018-05-07T02:38:34.390Z,10.4
2018-05-07T02:39:35.054Z,10.4
2018-05-07T02:40:35.720Z,10.4
2018-05-07T02:41:36.389Z,10.4
2018-05-07T02:42:37.052Z,10.4
2018-05-07T02:43:37.718Z,10.5
2018-05-07T02:44:38.384Z,10.4
2018-05-07T02:45:39.047Z,10.4
2018-05-07T02:46:39.711Z,10.4
2018-05-07T02:47:40.377Z,10.4
2018-05-07T02:48:41.077Z,10.4
2018-05-07T02:49:41.791Z,10.4
2018-05-07T02:50:42.457Z,10.4
2018-05-07T02:51:43.124Z,10.3
2018-05-07T02:52:43.791Z,10.4
2018-05-07T02:53:44.456Z,10.3
2018-05-07T02:54:45.173Z,10.4
2018-05-07T02:55:45.837Z,10.3
2018-05-07T02:56:46.502Z,10.4
2018-05-07T02:57:47.167Z,10.3
2018-05-07T02:58:47.832Z,10.3
2018-05-07T02:59:48.497Z,10.3
2018-05-07T03:00:49.161Z,10.3
2018-05-07T03:01:49.827Z,10.2
2018-05-07T03:02:50.490Z,10.1
2018-05-07T03:03:51.155Z,10.3
2018-05-07T03:04:51.859Z,10.2
2018-05-07T03:05:52.524Z,10.3
2018-05-07T03:06:53.191Z,10.2
2018-05-07T03:07:53.861Z,10.2
2018-05-07T03:08:54.522Z,10.2
2018-05-07T03:09:55.241Z,10.2
2018-05-07T03:10:55.938Z,10.2
2018-05-07T03:11:56.602Z,10.2
2018-05-07T03:12:57.269Z,10.2
2018-05-07T03:13:57.935Z,10.2
2018-05-07T03:14:58.601Z,10.1
2018-05-07T03:15:59.266Z,10.1
2018-05-07T03:16:59.968Z,10.1
2018-05-07T03:18:00.634Z,10.1
2018-05-07T03:19:01.300Z,10.1
2018-05-07T03:20:01.966Z,10.1
2018-05-07T03:21:02.634Z,10.1
2018-05-07T03:22:03.335Z,10.0
2018-05-07T03:23:04.004Z,10.1
2018-05-07T03:24:04.669Z,10.0
2018-05-07T03:25:05.336Z,10.0
2018-05-07T03:26:06.003Z,10.0
2018-05-07T03:27:06.667Z,10.0
2018-05-07T03:28:07.334Z,10.0
2018-05-07T03:29:08.000Z,10.0
2018-05-07T03:30:08.665Z,9.9
2018-05-07T03:31:09.334Z,9.9
2018-05-07T03:32:10.033Z,10.0
2018-05-07T03:33:10.698Z,9.9
2018-05-07T03:34:11.364Z,9.9
2018-05-07T03:35:12.030Z,10.0
2018-05-07T03:36:12.696Z,9.9
2018-05-07T03:37:13.363Z,9.9
2018-05-07T03:38:14.027Z,9.8
2018-05-07T03:39:14.698Z,9.8
2018-05-07T03:40:15.399Z,9.8
2018-05-07T03:41:16.103Z,9.9
2018-05-07T03:42:16.773Z,9.8
2018-05-07T03:43:17.474Z,9.9
2018-05-07T03:44:18.102Z,9.8
2018-05-07T03:45:18.768Z,9.8
2018-05-07T03:46:19.434Z,9.8
2018-05-07T03:47:20.103Z,9.7
2018-05-07T03:48:20.768Z,9.8
2018-05-07T03:49:21.435Z,9.7
2018-05-07T03:50:22.100Z,9.7
2018-05-07T03:51:22.765Z,9.7
2018-05-07T03:52:23.432Z,9.7
2018-05-07T03:53:24.101Z,9.7
2018-05-07T03:54:24.770Z,9.7
2018-05-07T03:55:25.434Z,9.7
2018-05-07T03:56:26.106Z,9.7
2018-05-07T03:57:26.808Z,9.7
2018-05-07T03:58:27.475Z,9.7
2018-05-07T03:59:28.142Z,9.7
2018-05-07T04:00:28.809Z,9.6
2018-05-07T04:01:29.474Z,9.7
2018-05-07T04:02:30.141Z,9.7
2018-05-07T04:03:30.810Z,9.7
2018-05-07T04:04:31.477Z,9.7
2018-05-07T04:05:32.143Z,9.7
2018-05-07T04:06:32.848Z,9.6
2018-05-07T04:07:33.515Z,9.7
2018-05-07T04:08:34.182Z,9.7
2018-05-07T04:09:34.850Z,9.7
2018-05-07T04:10:35.517Z,9.7
2018-05-07T04:11:36.186Z,9.7
2018-05-07T04:12:36.849Z,9.7
2018-05-07T04:13:37.520Z,9.7
2018-05-07T04:14:38.187Z,9.7
2018-05-07T04:15:38.853Z,9.7
2018-05-07T04:16:39.521Z,9.7
2018-05-07T04:17:40.188Z,9.7
2018-05-07T04:18:40.855Z,9.8
2018-05-07T04:19:41.522Z,9.7
2018-05-07T04:20:42.190Z,9.7
2018-05-07T04:21:42.856Z,9.8
2018-05-07T04:22:43.526Z,9.7
2018-05-07T04:23:44.192Z,9.7
2018-05-07T04:24:44.860Z,9.8
2018-05-07T04:25:45.528Z,9.7
2018-05-07T04:26:46.197Z,9.7
2018-05-07T04:27:46.865Z,9.8
2018-05-07T04:28:47.533Z,9.7
2018-05-07T04:29:48.202Z,9.7
2018-05-07T04:30:48.873Z,9.7
2018-05-07T04:31:49.539Z,9.7
2018-05-07T04:32:50.209Z,9.7
2018-05-07T04:33:50.887Z,9.8
2018-05-07T04:34:51.552Z,9.8
2018-05-07T04:35:52.214Z,9.8
2018-05-07T04:36:52.883Z,9.8
2018-05-07T04:37:53.551Z,9.9
2018-05-07T04:38:54.219Z,9.8
2018-05-07T04:39:54.889Z,9.9
2018-05-07T04:40:55.594Z,9.8
2018-05-07T04:41:56.263Z,9.9
2018-05-07T04:42:56.930Z,9.9
2018-05-07T04:43:57.598Z,9.9
2018-05-07T04:44:58.268Z,10.0
2018-05-07T04:45:58.937Z,9.9
2018-05-07T04:46:59.606Z,10.0
2018-05-07T04:48:00.275Z,10.0
2018-05-07T04:49:00.943Z,9.9
2018-05-07T04:50:01.612Z,10.0
2018-05-07T04:51:02.278Z,9.9
2018-05-07T04:52:02.948Z,9.9
2018-05-07T04:53:03.617Z,10.0
2018-05-07T04:54:04.286Z,10.0
2018-05-07T04:55:05.022Z,9.9
2018-05-07T04:56:05.625Z,10.0
2018-05-07T04:57:06.296Z,10.0
2018-05-07T04:58:06.961Z,9.9
2018-05-07T04:59:07.672Z,10.0
2018-05-07T05:00:08.342Z,10.1
2018-05-07T05:01:09.011Z,10.0
2018-05-07T05:02:09.682Z,10.0
2018-05-07T05:03:10.352Z,10.0
2018-05-07T05:04:11.057Z,10.1
2018-05-07T05:05:11.724Z,10.1
2018-05-07T05:06:12.397Z,10.0
2018-05-07T05:07:13.082Z,10.1
2018-05-07T05:08:13.765Z,10.1
2018-05-07T05:09:14.441Z,10.2
2018-05-07T05:10:15.139Z,10.2
2018-05-07T05:11:15.810Z,10.2
2018-05-07T05:12:16.478Z,10.2
2018-05-07T05:13:17.146Z,10.2
2018-05-07T05:14:17.818Z,10.3
2018-05-07T05:15:18.486Z,10.3
2018-05-07T05:16:19.157Z,10.3
2018-05-07T05:17:19.825Z,10.3
2018-05-07T05:18:20.498Z,10.3
2018-05-07T05:19:21.179Z,10.3
2018-05-07T05:20:21.864Z,10.4
2018-05-07T05:21:22.541Z,10.4
2018-05-07T05:22:23.202Z,10.4
2018-05-07T05:23:23.875Z,10.5
2018-05-07T05:24:24.588Z,10.4
2018-05-07T05:25:25.254Z,10.5
2018-05-07T05:26:25.925Z,10.6
2018-05-07T05:27:26.677Z,10.5
2018-05-07T05:28:27.262Z,10.6
2018-05-07T05:29:27.931Z,10.6
2018-05-07T05:30:28.601Z,10.6
2018-05-07T05:31:29.272Z,10.6
2018-05-07T05:32:29.977Z,10.7
2018-05-07T05:33:30.648Z,10.6
2018-05-07T05:34:31.317Z,10.6
2018-05-07T05:35:31.990Z,10.7
2018-05-07T05:36:32.708Z,10.7
2018-05-07T05:37:33.376Z,10.7
2018-05-07T05:38:34.083Z,10.8
2018-05-07T05:39:34.753Z,10.8
2018-05-07T05:40:35.422Z,10.9
2018-05-07T05:41:36.091Z,10.9
2018-05-07T05:42:36.762Z,10.9
2018-05-07T05:43:37.538Z,11.0
2018-05-07T05:44:38.141Z,11.1
2018-05-07T05:45:38.809Z,11.0
2018-05-07T05:46:39.480Z,11.1
2018-05-07T05:47:40.149Z,11.0
2018-05-07T05:48:40.821Z,11.2
2018-05-07T05:49:41.489Z,11.3
2018-05-07T05:50:42.160Z,11.3
2018-05-07T05:51:42.830Z,11.3
2018-05-07T05:52:43.501Z,11.3
2018-05-07T05:53:44.170Z,11.4
2018-05-07T05:54:44.839Z,11.5
2018-05-07T05:55:45.509Z,11.5
2018-05-07T05:56:46.231Z,11.5
2018-05-07T05:57:46.900Z,11.6
2018-05-07T05:58:47.572Z,11.6
2018-05-07T05:59:48.241Z,11.6
2018-05-07T06:00:48.912Z,11.7
2018-05-07T06:01:49.584Z,11.7
2018-05-07T06:02:50.252Z,11.7
2018-05-07T06:03:50.963Z,11.9
2018-05-07T06:04:51.593Z,11.9
2018-05-07T06:05:52.262Z,11.9
2018-05-07T06:06:52.935Z,11.9
2018-05-07T06:07:53.605Z,12.0
2018-05-07T06:08:54.321Z,12.0
2018-05-07T06:09:54.975Z,12.1
2018-05-07T06:10:55.646Z,12.2
2018-05-07T06:11:56.317Z,12.2
2018-05-07T06:12:56.989Z,12.2
2018-05-07T06:13:57.659Z,12.3
2018-05-07T06:14:58.555Z,12.3
2018-05-07T06:15:59.001Z,12.4
2018-05-07T06:16:59.672Z,12.4
2018-05-07T06:18:00.343Z,12.5
2018-05-07T06:19:01.064Z,12.6
2018-05-07T06:20:01.686Z,12.6
2018-05-07T06:21:02.363Z,12.7
2018-05-07T06:22:03.032Z,13.1
2018-05-07T06:23:03.705Z,13.8
2018-05-07T06:24:04.377Z,15.0
2018-05-07T06:25:05.086Z,16.2
2018-05-07T06:26:05.758Z,17.3
2018-05-07T06:27:06.485Z,18.1
2018-05-07T06:28:07.160Z,19.2
2018-05-07T06:29:07.844Z,20.1
2018-05-07T06:30:08.507Z,21.0
2018-05-07T06:31:09.185Z,22.0
2018-05-07T06:32:09.862Z,22.8
2018-05-07T06:33:10.531Z,23.6
2018-05-07T06:34:11.209Z,24.3
2018-05-07T06:35:11.886Z,25.2
2018-05-07T06:36:12.560Z,25.8
2018-05-07T06:37:13.239Z,26.6
2018-05-07T06:38:13.921Z,27.3
2018-05-07T06:39:14.630Z,27.9
2018-05-07T06:40:15.310Z,28.2
2018-05-07T06:41:15.989Z,28.6
2018-05-07T06:42:16.669Z,28.7
2018-05-07T06:43:17.348Z,28.8
2018-05-07T06:44:18.029Z,29.3
2018-05-07T06:45:18.709Z,29.5
2018-05-07T06:46:19.388Z,29.8
2018-05-07T06:47:20.070Z,30.3
2018-05-07T06:48:20.751Z,30.5
2018-05-07T06:49:21.433Z,30.8
2018-05-07T06:50:22.115Z,31.2
2018-05-07T06:51:22.796Z,31.5
2018-05-07T06:52:23.515Z,31.8
2018-05-07T06:53:24.196Z,32.0
2018-05-07T06:54:24.918Z,32.0
2018-05-07T06:55:25.602Z,32.2
2018-05-07T06:56:26.283Z,32.4
2018-05-07T06:57:26.966Z,32.6
2018-05-07T06:58:27.649Z,32.7
2018-05-07T06:59:28.367Z,32.8
2018-05-07T07:00:29.052Z,33.0
2018-05-07T07:01:29.739Z,33.0
2018-05-07T07:02:30.496Z,33.1
2018-05-07T07:03:31.141Z,33.2
2018-05-07T07:04:31.823Z,33.4
2018-05-07T07:05:32.512Z,33.6
2018-05-07T07:06:33.231Z,33.8
2018-05-07T07:07:33.915Z,33.9
2018-05-07T07:08:34.796Z,33.9
2018-05-07T07:09:35.283Z,34.0
2018-05-07T07:10:35.966Z,34.1
2018-05-07T07:11:36.653Z,34.1
2018-05-07T07:12:37.340Z,34.2
2018-05-07T07:13:38.026Z,34.4
2018-05-07T07:14:38.711Z,34.6
2018-05-07T07:15:39.398Z,34.7
2018-05-07T07:16:40.084Z,34.9
2018-05-07T07:17:40.770Z,34.9
2018-05-07T07:18:41.454Z,35.0
2018-05-07T07:19:42.142Z,35.1
2018-05-07T07:20:42.830Z,35.1
2018-05-07T07:21:43.617Z,35.1
2018-05-07T07:22:44.235Z,35.3
2018-05-07T07:23:44.920Z,35.4
2018-05-07T07:24:45.606Z,35.5
2018-05-07T07:25:46.292Z,35.4
2018-05-07T07:26:46.979Z,35.4
2018-05-07T07:27:47.706Z,35.5
2018-05-07T07:28:48.394Z,35.4
2018-05-07T07:29:49.077Z,35.2
2018-05-07T07:30:49.804Z,35.1
2018-05-07T07:31:50.489Z,35.1
2018-05-07T07:32:51.172Z,35.3
2018-05-07T07:33:51.933Z,35.1
2018-05-07T07:34:52.546Z,34.8
2018-05-07T07:35:53.231Z,34.9
2018-05-07T07:36:53.916Z,35.1
2018-05-07T07:37:54.602Z,35.3
2018-05-07T07:38:55.289Z,35.4
2018-05-07T07:39:55.973Z,35.7
2018-05-07T07:40:56.659Z,35.9
2018-05-07T07:41:57.343Z,36.0
2018-05-07T07:42:58.030Z,36.2
2018-05-07T07:43:58.719Z,36.4
2018-05-07T07:44:59.403Z,36.5
2018-05-07T07:46:00.088Z,36.5
2018-05-07T07:47:00.847Z,36.6
2018-05-07T07:48:01.459Z,36.8
2018-05-07T07:49:02.143Z,36.8
2018-05-07T07:50:02.828Z,36.8
2018-05-07T07:51:03.516Z,36.7
2018-05-07T07:52:04.235Z,36.5
2018-05-07T07:53:04.928Z,36.4
2018-05-07T07:54:05.643Z,36.4
2018-05-07T07:55:06.327Z,36.4
2018-05-07T07:56:07.011Z,36.5
2018-05-07T07:57:07.694Z,36.6
2018-05-07T07:58:08.376Z,36.6
2018-05-07T07:59:09.061Z,36.7
2018-05-07T08:00:09.747Z,36.8
2018-05-07T08:01:10.465Z,36.8
2018-05-07T08:02:11.154Z,36.6
2018-05-07T08:03:11.835Z,36.4
2018-05-07T08:04:12.581Z,36.4
2018-05-07T08:05:13.278Z,36.3
2018-05-07T08:06:13.960Z,36.5
2018-05-07T08:07:14.647Z,36.5
2018-05-07T08:08:15.331Z,36.5
2018-05-07T08:09:16.016Z,36.5
2018-05-07T08:10:16.698Z,36.7
2018-05-07T08:11:17.382Z,36.6
2018-05-07T08:12:18.201Z,36.6
2018-05-07T08:13:18.801Z,36.5
2018-05-07T08:14:19.484Z,36.4
2018-05-07T08:15:20.167Z,36.5
2018-05-07T08:16:20.853Z,36.5
2018-05-07T08:17:21.538Z,36.5
2018-05-07T08:18:22.222Z,36.7
2018-05-07T08:19:22.906Z,36.8
2018-05-07T08:20:23.588Z,36.9
2018-05-07T08:21:24.272Z,36.8
2018-05-07T08:22:24.958Z,36.8
2018-05-07T08:23:25.642Z,36.7
2018-05-07T08:24:26.379Z,36.6
2018-05-07T08:25:27.026Z,36.3
2018-05-07T08:26:27.709Z,36.3
2018-05-07T08:27:28.397Z,36.4
2018-05-07T08:28:29.077Z,36.5
2018-05-07T08:29:29.760Z,36.6
2018-05-07T08:30:30.464Z,36.6
2018-05-07T08:31:31.129Z,36.7
2018-05-07T08:32:31.813Z,36.5
2018-05-07T08:33:32.497Z,36.6
2018-05-07T08:34:33.182Z,36.7
2018-05-07T08:35:33.869Z,36.4
2018-05-07T08:36:34.630Z,36.0
2018-05-07T08:37:35.236Z,36.0
2018-05-07T08:38:35.923Z,36.1
2018-05-07T08:39:36.603Z,36.2
2018-05-07T08:40:37.291Z,36.4
2018-05-07T08:41:37.975Z,36.5
2018-05-07T08:42:38.655Z,36.4
2018-05-07T08:43:39.339Z,36.4
2018-05-07T08:44:40.022Z,36.2
2018-05-07T08:45:40.706Z,36.2
2018-05-07T08:46:41.399Z,36.4
2018-05-07T08:47:42.074Z,36.4
2018-05-07T08:48:42.760Z,36.3
2018-05-07T08:49:43.441Z,36.2
2018-05-07T08:50:44.198Z,36.1
2018-05-07T08:51:44.811Z,36.1
2018-05-07T08:52:45.538Z,36.2
2018-05-07T08:53:46.188Z,36.3
2018-05-07T08:54:46.903Z,36.3
2018-05-07T08:55:47.588Z,35.6
2018-05-07T08:56:48.271Z,35.2
2018-05-07T08:57:48.957Z,35.0
2018-05-07T08:58:49.641Z,34.6
2018-05-07T08:59:50.324Z,34.8
2018-05-07T09:00:51.008Z,34.8
2018-05-07T09:01:51.691Z,34.5
2018-05-07T09:02:52.378Z,34.5
2018-05-07T09:03:53.062Z,34.6
2018-05-07T09:04:53.748Z,34.4
2018-05-07T09:05:54.472Z,34.4
2018-05-07T09:06:55.150Z,34.5
2018-05-07T09:07:55.869Z,34.5
2018-05-07T09:08:56.523Z,34.4
2018-05-07T09:09:57.206Z,34.3
2018-05-07T09:10:57.891Z,34.2
2018-05-07T09:11:58.577Z,34.1
2018-05-07T09:12:59.295Z,34.0
2018-05-07T09:13:59.981Z,34.0
2018-05-07T09:15:00.687Z,33.9
2018-05-07T09:16:01.347Z,33.6
2018-05-07T09:17:02.031Z,33.5
2018-05-07T09:18:02.714Z,33.6
2018-05-07T09:19:03.399Z,33.6
2018-05-07T09:20:04.082Z,33.8
2018-05-07T09:21:04.767Z,33.8
2018-05-07T09:22:05.450Z,33.9
2018-05-07T09:23:06.133Z,33.6
2018-05-07T09:24:06.819Z,33.6
2018-05-07T09:25:07.501Z,33.5
2018-05-07T09:26:08.186Z,33.5
2018-05-07T09:27:08.877Z,33.5
2018-05-07T09:28:09.551Z,33.5
2018-05-07T09:29:10.234Z,33.7
2018-05-07T09:30:10.918Z,33.7
2018-05-07T09:31:11.601Z,33.7
2018-05-07T09:32:12.286Z,33.5
2018-05-07T09:33:12.967Z,33.4
2018-05-07T09:34:13.651Z,33.5
2018-05-07T09:35:14.371Z,33.2
2018-05-07T09:36:15.056Z,33.0
2018-05-07T09:37:15.739Z,32.8
2018-05-07T09:38:16.423Z,32.7
2018-05-07T09:39:17.107Z,32.6
2018-05-07T09:40:17.789Z,32.5
2018-05-07T09:41:18.480Z,32.3
2018-05-07T09:42:19.197Z,32.3
2018-05-07T09:43:19.902Z,32.2
2018-05-07T09:44:20.563Z,32.0
2018-05-07T09:45:21.245Z,31.8
2018-05-07T09:46:21.930Z,31.8
2018-05-07T09:47:22.613Z,31.5
2018-05-07T09:48:23.333Z,31.4
2018-05-07T09:49:23.981Z,31.4
2018-05-07T09:50:24.666Z,31.5
2018-05-07T09:51:25.348Z,31.5
2018-05-07T09:52:26.071Z,31.6
2018-05-07T09:53:26.752Z,31.3
2018-05-07T09:54:27.438Z,31.0
2018-05-07T09:55:28.117Z,30.8
2018-05-07T09:56:28.799Z,31.0
2018-05-07T09:57:29.483Z,30.8
2018-05-07T09:58:30.168Z,30.9
2018-05-07T09:59:30.851Z,30.7
2018-05-07T10:00:31.540Z,30.7
2018-05-07T10:01:32.215Z,30.5
2018-05-07T10:02:33.000Z,30.4
2018-05-07T10:03:33.582Z,30.4
2018-05-07T10:04:34.302Z,30.4
2018-05-07T10:05:35.024Z,30.5
2018-05-07T10:06:35.706Z,30.5
2018-05-07T10:07:36.387Z,30.5
2018-05-07T10:08:37.070Z,30.4
2018-05-07T10:09:37.754Z,30.4
2018-05-07T10:10:38.437Z,30.4
2018-05-07T10:11:39.119Z,30.3
2018-05-07T10:12:39.807Z,30.3
2018-05-07T10:13:40.482Z,30.1
2018-05-07T10:14:41.166Z,29.9
2018-05-07T10:15:41.848Z,29.8
2018-05-07T10:16:42.531Z,29.6
2018-05-07T10:17:43.222Z,29.5
2018-05-07T10:18:43.896Z,29.1
2018-05-07T10:19:44.579Z,28.8
2018-05-07T10:20:45.260Z,28.5
2018-05-07T10:21:45.945Z,28.1
2018-05-07T10:22:46.626Z,27.7
2018-05-07T10:23:47.306Z,27.4
2018-05-07T10:24:47.990Z,27.1
2018-05-07T10:25:48.672Z,26.8
2018-05-07T10:26:49.354Z,26.6
2018-05-07T10:27:50.035Z,26.5
2018-05-07T10:28:50.716Z,26.4
2018-05-07T10:29:51.476Z,26.3
2018-05-07T10:30:52.079Z,26.0
2018-05-07T10:31:52.759Z,26.0
2018-05-07T10:32:53.444Z,25.8
2018-05-07T10:33:54.120Z,25.7
2018-05-07T10:34:54.801Z,25.6
2018-05-07T10:35:55.483Z,25.5
2018-05-07T10:36:56.201Z,25.5
2018-05-07T10:37:56.880Z,25.5
2018-05-07T10:38:57.561Z,25.6
2018-05-07T10:39:58.245Z,25.5
2018-05-07T10:40:58.928Z,25.4
2018-05-07T10:41:59.606Z,25.5
2018-05-07T10:43:00.285Z,25.5
2018-05-07T10:44:00.965Z,25.5
2018-05-07T10:45:01.686Z,25.5
2018-05-07T10:46:02.365Z,25.4
2018-05-07T10:47:03.041Z,25.2
2018-05-07T10:48:03.721Z,25.1
2018-05-07T10:49:04.471Z,25.1
2018-05-07T10:50:05.081Z,24.9
2018-05-07T10:51:05.762Z,24.9
2018-05-07T10:52:06.437Z,24.8
2018-05-07T10:53:07.116Z,24.8
2018-05-07T10:54:07.795Z,24.6
2018-05-07T10:55:08.472Z,24.7
2018-05-07T10:56:09.210Z,24.6
2018-05-07T10:57:09.830Z,24.5
2018-05-07T10:58:10.507Z,24.5
2018-05-07T10:59:11.185Z,24.4
2018-05-07T11:00:11.866Z,24.3
2018-05-07T11:01:12.543Z,24.4
2018-05-07T11:02:13.222Z,24.4
2018-05-07T11:03:13.901Z,24.4
2018-05-07T11:04:14.580Z,24.5
2018-05-07T11:05:15.258Z,24.5
2018-05-07T11:06:15.974Z,24.5
2018-05-07T11:07:16.653Z,24.3
2018-05-07T11:08:17.331Z,24.3
2018-05-07T11:09:18.010Z,24.3
2018-05-07T11:10:18.687Z,24.1
2018-05-07T11:11:19.364Z,24.1
2018-05-07T11:12:20.044Z,24.2
2018-05-07T11:13:20.722Z,24.2
2018-05-07T11:14:21.400Z,24.1
2018-05-07T11:15:22.078Z,24.2
2018-05-07T11:16:22.757Z,24.3
2018-05-07T11:17:23.434Z,24.2
2018-05-07T11:18:24.114Z,24.4
2018-05-07T11:19:24.801Z,24.3
2018-05-07T11:20:25.470Z,24.3
2018-05-07T11:21:26.151Z,24.3
2018-05-07T11:22:26.825Z,24.2
2018-05-07T11:23:27.501Z,24.4
2018-05-07T11:24:28.180Z,24.3
2018-05-07T11:25:28.896Z,24.3
2018-05-07T11:26:29.576Z,24.5
2018-05-07T11:27:30.252Z,24.5
2018-05-07T11:28:30.929Z,24.5
2018-05-07T11:29:31.607Z,24.5
2018-05-07T11:30:32.282Z,24.3
2018-05-07T11:31:32.962Z,24.4
2018-05-07T11:32:33.639Z,24.4
2018-05-07T11:33:34.316Z,24.4
2018-05-07T11:34:34.996Z,24.3
2018-05-07T11:35:35.672Z,24.4
2018-05-07T11:36:36.350Z,24.5
2018-05-07T11:37:37.029Z,24.5
2018-05-07T11:38:37.709Z,24.6
2018-05-07T11:39:38.385Z,24.7
2018-05-07T11:40:39.063Z,24.7
2018-05-07T11:41:39.740Z,24.6
2018-05-07T11:42:40.416Z,24.6
2018-05-07T11:43:41.097Z,24.6
2018-05-07T11:44:41.774Z,24.6
2018-05-07T11:45:42.489Z,24.5
2018-05-07T11:46:43.167Z,24.5
2018-05-07T11:47:43.862Z,24.5
2018-05-07T11:48:44.522Z,24.6
2018-05-07T11:49:45.199Z,24.7
2018-05-07T11:50:45.878Z,24.7
2018-05-07T11:51:46.557Z,24.6
2018-05-07T11:52:47.237Z,24.6
2018-05-07T11:53:47.952Z,24.6
2018-05-07T11:54:48.628Z,24.6
2018-05-07T11:55:49.307Z,24.6
2018-05-07T11:56:50.019Z,24.5
2018-05-07T11:57:50.696Z,24.3
2018-05-07T11:58:51.376Z,24.3
2018-05-07T11:59:52.053Z,24.2
2018-05-07T12:00:52.729Z,24.2
2018-05-07T12:01:53.407Z,24.1
2018-05-07T12:02:54.121Z,24.2
2018-05-07T12:03:54.799Z,24.3
2018-05-07T12:04:55.478Z,24.2
2018-05-07T12:05:56.155Z,24.3
2018-05-07T12:06:56.880Z,24.3
2018-05-07T12:07:57.509Z,24.2
2018-05-07T12:08:58.192Z,24.4
2018-05-07T12:09:58.863Z,24.3
2018-05-07T12:10:59.540Z,24.4
2018-05-07T12:12:00.220Z,24.2
2018-05-07T12:13:00.900Z,24.2
2018-05-07T12:14:01.612Z,24.2
2018-05-07T12:15:02.290Z,24.1
2018-05-07T12:16:03.004Z,24.2
2018-05-07T12:17:03.644Z,24.2
2018-05-07T12:18:04.322Z,24.3
2018-05-07T12:19:05.001Z,24.4
2018-05-07T12:20:05.676Z,24.4
2018-05-07T12:21:06.354Z,24.4
2018-05-07T12:22:07.036Z,24.5
2018-05-07T12:23:07.728Z,24.5
2018-05-07T12:24:08.396Z,24.4
2018-05-07T12:25:09.069Z,24.4
2018-05-07T12:26:09.783Z,24.5
2018-05-07T12:27:10.458Z,24.4
2018-05-07T12:28:11.136Z,24.4
2018-05-07T12:29:11.813Z,24.4
2018-05-07T12:30:12.490Z,24.4
2018-05-07T12:31:13.261Z,24.4
2018-05-07T12:32:13.877Z,24.5
2018-05-07T12:33:14.556Z,24.4
2018-05-07T12:34:15.233Z,24.3
2018-05-07T12:35:15.910Z,24.4
2018-05-07T12:36:16.591Z,24.4
2018-05-07T12:37:17.264Z,24.3
2018-05-07T12:38:17.941Z,24.3
2018-05-07T12:39:18.619Z,24.3
2018-05-07T12:40:19.336Z,24.3
2018-05-07T12:41:20.014Z,24.2
2018-05-07T12:42:20.690Z,24.3
2018-05-07T12:43:21.368Z,24.3
2018-05-07T12:44:22.044Z,24.4
2018-05-07T12:45:22.720Z,24.3
2018-05-07T12:46:23.397Z,24.3
2018-05-07T12:47:24.077Z,24.5
2018-05-07T12:48:24.752Z,24.5
2018-05-07T12:49:25.431Z,24.5
2018-05-07T12:50:26.110Z,24.5
2018-05-07T12:51:26.786Z,24.5
2018-05-07T12:52:27.536Z,24.5
2018-05-07T12:53:28.145Z,24.6
2018-05-07T12:54:28.821Z,24.6
2018-05-07T12:55:29.501Z,24.6
2018-05-07T12:56:30.212Z,24.6
2018-05-07T12:57:30.899Z,24.5
2018-05-07T12:58:31.602Z,24.3
2018-05-07T12:59:32.279Z,24.3
2018-05-07T13:00:32.961Z,24.3
2018-05-07T13:01:33.636Z,24.5
2018-05-07T13:02:34.312Z,24.4
2018-05-07T13:03:34.990Z,24.3
2018-05-07T13:04:35.668Z,24.4
2018-05-07T13:05:36.345Z,24.3
2018-05-07T13:06:37.023Z,24.3
2018-05-07T13:07:37.703Z,24.3
2018-05-07T13:08:38.379Z,24.3
2018-05-07T13:09:39.056Z,24.3
2018-05-07T13:10:39.733Z,24.3
2018-05-07T13:11:40.417Z,24.3
2018-05-07T13:12:41.126Z,24.4
2018-05-07T13:13:41.802Z,24.4
2018-05-07T13:14:42.482Z,24.5
2018-05-07T13:15:43.164Z,24.5
2018-05-07T13:16:43.838Z,24.6
2018-05-07T13:17:44.515Z,24.6
2018-05-07T13:18:45.191Z,24.6
2018-05-07T13:19:45.869Z,24.6
2018-05-07T13:20:46.548Z,24.7
2018-05-07T13:21:47.315Z,24.7
2018-05-07T13:22:48.029Z,24.7
2018-05-07T13:23:48.708Z,24.6
2018-05-07T13:25:49.931Z,24.7
2018-05-07T13:26:50.612Z,24.7
2018-05-07T13:27:51.288Z,24.6
2018-05-07T13:28:51.965Z,24.6
2018-05-07T13:29:52.643Z,24.7
2018-05-07T13:30:53.320Z,24.6
2018-05-07T13:31:53.997Z,24.8